KARB Airport (Ann Arbor Muni) Information

FAA: ARB - ICAO: KARB

KARB Airport Location

State Michigan
County Washtenaw
City Ann Arbor
KARB Airport is 3 miles south of Ann Arbor, MI.
Latitude 42-13-22.5392N
Longitude 083-44-44.5518W
Elevation 839ft

KARB Airport METARs

METAR KARB 302153Z 06008KT 10SM CLR 18/04 A3020 RMK AO2 SLP228 T01830039
Altimeter 30.20"
Temperature 18.3°C (64.9°F)
Wind 60° at 8KT
Clouds Skies are clear.
Visibility 10.0mi
Time observed: 2022-09-30T21:53:00Z

KARB Airport Details

Status Operational
Activation April 1940
Ownership Public
Usage Public
Chart DETROIT
ATC on-site Yes
Beacon schedule sunset-sunrise
Beacon color clear green

KARB Airport Contacts

Owner CITY OF ANN ARBOR
Owner address 801 AIRPORT DR, ANN ARBOR, MI 48108
Owner phone 734-994-2841
Manager CARLOS FIGUEIRA
Manager address 123 SUMMER STREET, WORCESTER, MA 01608
Manager phone 508-363-5054

KARB Airport (Ann Arbor Muni) Radio Frequencies

KARB (Airport) Radio Frequencies

UNICOM 123
Common traffic advisory frequency (CTAF) 120.3